Terminal Aerodrome Forecast
Issued by NWS

Home | Current Version | Previous Version | Text Only | Print | Product List | Glossary On
Versions: 1 2 3 4 5 6 7 8 9 10 11 12 13 14
807
FTUS43 KFGF 280520
TAFDVL
TAF
KDVL 280520Z 2806/2906 05005KT P6SM BKN250
     FM281700 06005KT P6SM SCT050
     FM290000 11005KT P6SM SCT250=

USA.gov is the U.S. government's official web portal to all federal, state and local government web resources and services.